<?xml version="1.0" encoding="UTF-8" standalone="no" ?>
<gpx xmlns="http://www.topografix.com/GPX/1/1" xmlns:xsi="http://www.w3.org/2001/XMLSchema-instance" xsi:schemaLocation="http://www.topografix.com/GPX/1/1 http://www.topografix.com/GPX/1/1/gpx.xsd" version="1.1" creator="VisuGPX - https://www.visugpx.com">
  <metadata>
    <name>Lac du Der - Parcours vélo</name>
  </metadata>
  <trk>
    <name><![CDATA[Lac du Der - Parcours vélo_2]]></name>
    <trkseg>
      <trkpt lat="48.53194" lon="4.81645">
        <ele>146</ele>
        <time>2022-08-24T11:42:09Z</time>
      </trkpt>
      <trkpt lat="48.532" lon="4.81645">
        <ele>160.16</ele>
        <time>2022-08-24T11:44:08Z</time>
      </trkpt>
      <trkpt lat="48.53204" lon="4.81645">
        <ele>159.98</ele>
        <time>2022-08-24T11:44:10Z</time>
      </trkpt>
      <trkpt lat="48.53241" lon="4.81653">
        <ele>159.44</ele>
        <time>2022-08-24T11:44:29Z</time>
      </trkpt>
      <trkpt lat="48.53274" lon="4.81663">
        <ele>158.74</ele>
        <time>2022-08-24T11:44:44Z</time>
      </trkpt>
      <trkpt lat="48.53305" lon="4.81678">
        <ele>158.63</ele>
        <time>2022-08-24T11:44:59Z</time>
      </trkpt>
      <trkpt lat="48.53342" lon="4.81704">
        <ele>158.53</ele>
        <time>2022-08-24T11:45:15Z</time>
      </trkpt>
      <trkpt lat="48.53376" lon="4.81727">
        <ele>158.8</ele>
        <time>2022-08-24T11:45:31Z</time>
      </trkpt>
      <trkpt lat="48.5339" lon="4.81741">
        <ele>158.99</ele>
        <time>2022-08-24T11:45:45Z</time>
      </trkpt>
      <trkpt lat="48.53391" lon="4.81746">
        <ele>158.98</ele>
        <time>2022-08-24T11:45:52Z</time>
      </trkpt>
      <trkpt lat="48.53392" lon="4.81746">
        <ele>159.25</ele>
        <time>2022-08-24T11:49:45Z</time>
      </trkpt>
      <trkpt lat="48.53394" lon="4.81741">
        <ele>159.13</ele>
        <time>2022-08-24T11:49:59Z</time>
      </trkpt>
      <trkpt lat="48.53391" lon="4.81733">
        <ele>159.03</ele>
        <time>2022-08-24T11:50:35Z</time>
      </trkpt>
      <trkpt lat="48.53399" lon="4.81731">
        <ele>158.86</ele>
        <time>2022-08-24T11:50:42Z</time>
      </trkpt>
      <trkpt lat="48.53417" lon="4.81731">
        <ele>158.58</ele>
        <time>2022-08-24T11:50:56Z</time>
      </trkpt>
      <trkpt lat="48.53419" lon="4.81733">
        <ele>158.62</ele>
        <time>2022-08-24T11:51:03Z</time>
      </trkpt>
      <trkpt lat="48.53418" lon="4.81727">
        <ele>158.63</ele>
        <time>2022-08-24T11:51:19Z</time>
      </trkpt>
      <trkpt lat="48.53414" lon="4.81723">
        <ele>158.51</ele>
        <time>2022-08-24T11:51:22Z</time>
      </trkpt>
      <trkpt lat="48.53418" lon="4.81702">
        <ele>158.17</ele>
        <time>2022-08-24T11:51:28Z</time>
      </trkpt>
      <trkpt lat="48.53458" lon="4.81632">
        <ele>158.36</ele>
        <time>2022-08-24T11:51:46Z</time>
      </trkpt>
      <trkpt lat="48.535" lon="4.8156">
        <ele>158.01</ele>
        <time>2022-08-24T11:52:05Z</time>
      </trkpt>
      <trkpt lat="48.53517" lon="4.81526">
        <ele>158.16</ele>
        <time>2022-08-24T11:52:16Z</time>
      </trkpt>
      <trkpt lat="48.5352" lon="4.81527">
        <ele>158.28</ele>
        <time>2022-08-24T11:52:24Z</time>
      </trkpt>
      <trkpt lat="48.53519" lon="4.81523">
        <ele>158.12</ele>
        <time>2022-08-24T11:52:30Z</time>
      </trkpt>
      <trkpt lat="48.53538" lon="4.81481">
        <ele>158.13</ele>
        <time>2022-08-24T11:52:45Z</time>
      </trkpt>
      <trkpt lat="48.53567" lon="4.81408">
        <ele>157.36</ele>
        <time>2022-08-24T11:53:01Z</time>
      </trkpt>
      <trkpt lat="48.53593" lon="4.81324">
        <ele>156.98</ele>
        <time>2022-08-24T11:53:17Z</time>
      </trkpt>
      <trkpt lat="48.53615" lon="4.81253">
        <ele>157.15</ele>
        <time>2022-08-24T11:53:33Z</time>
      </trkpt>
      <trkpt lat="48.53642" lon="4.81183">
        <ele>156.62</ele>
        <time>2022-08-24T11:53:49Z</time>
      </trkpt>
      <trkpt lat="48.53673" lon="4.81121">
        <ele>156.85</ele>
        <time>2022-08-24T11:54:05Z</time>
      </trkpt>
      <trkpt lat="48.53706" lon="4.81054">
        <ele>157.07</ele>
        <time>2022-08-24T11:54:24Z</time>
      </trkpt>
      <trkpt lat="48.53739" lon="4.80993">
        <ele>157.12</ele>
        <time>2022-08-24T11:54:41Z</time>
      </trkpt>
      <trkpt lat="48.53777" lon="4.8094">
        <ele>157.3</ele>
        <time>2022-08-24T11:54:59Z</time>
      </trkpt>
      <trkpt lat="48.53812" lon="4.80899">
        <ele>157.68</ele>
        <time>2022-08-24T11:55:15Z</time>
      </trkpt>
      <trkpt lat="48.53842" lon="4.80867">
        <ele>158.21</ele>
        <time>2022-08-24T11:55:29Z</time>
      </trkpt>
      <trkpt lat="48.5387" lon="4.80838">
        <ele>158.72</ele>
        <time>2022-08-24T11:55:43Z</time>
      </trkpt>
      <trkpt lat="48.53897" lon="4.80809">
        <ele>159.99</ele>
        <time>2022-08-24T11:55:59Z</time>
      </trkpt>
      <trkpt lat="48.53916" lon="4.80785">
        <ele>160.98</ele>
        <time>2022-08-24T11:56:11Z</time>
      </trkpt>
      <trkpt lat="48.53938" lon="4.8076">
        <ele>161.52</ele>
        <time>2022-08-24T11:56:24Z</time>
      </trkpt>
      <trkpt lat="48.53965" lon="4.80734">
        <ele>162.04</ele>
        <time>2022-08-24T11:56:39Z</time>
      </trkpt>
      <trkpt lat="48.53994" lon="4.8071">
        <ele>162.29</ele>
        <time>2022-08-24T11:56:54Z</time>
      </trkpt>
      <trkpt lat="48.53995" lon="4.80708">
        <ele>162.32</ele>
        <time>2022-08-24T11:56:55Z</time>
      </trkpt>
      <trkpt lat="48.54" lon="4.80686">
        <ele>162.83</ele>
        <time>2022-08-24T11:57:08Z</time>
      </trkpt>
      <trkpt lat="48.54002" lon="4.80696">
        <ele>162.6</ele>
        <time>2022-08-24T11:57:14Z</time>
      </trkpt>
      <trkpt lat="48.54015" lon="4.80699">
        <ele>162.8</ele>
        <time>2022-08-24T11:57:22Z</time>
      </trkpt>
      <trkpt lat="48.54022" lon="4.80696">
        <ele>162.94</ele>
        <time>2022-08-24T11:57:27Z</time>
      </trkpt>
      <trkpt lat="48.54025" lon="4.80692">
        <ele>163.03</ele>
        <time>2022-08-24T11:57:30Z</time>
      </trkpt>
      <trkpt lat="48.54037" lon="4.80679">
        <ele>163.61</ele>
        <time>2022-08-24T11:57:46Z</time>
      </trkpt>
      <trkpt lat="48.54067" lon="4.80655">
        <ele>164.9</ele>
        <time>2022-08-24T11:58:15Z</time>
      </trkpt>
      <trkpt lat="48.54071" lon="4.80652">
        <ele>165.1</ele>
        <time>2022-08-24T11:58:18Z</time>
      </trkpt>
      <trkpt lat="48.54076" lon="4.80649">
        <ele>165.18</ele>
        <time>2022-08-24T11:58:22Z</time>
      </trkpt>
      <trkpt lat="48.54093" lon="4.80631">
        <ele>166.01</ele>
        <time>2022-08-24T11:58:38Z</time>
      </trkpt>
      <trkpt lat="48.54107" lon="4.80616">
        <ele>166.51</ele>
        <time>2022-08-24T11:58:54Z</time>
      </trkpt>
      <trkpt lat="48.54107" lon="4.80615">
        <ele>166.54</ele>
        <time>2022-08-24T11:58:55Z</time>
      </trkpt>
      <trkpt lat="48.54113" lon="4.80606">
        <ele>166.53</ele>
        <time>2022-08-24T11:58:59Z</time>
      </trkpt>
      <trkpt lat="48.54151" lon="4.80546">
        <ele>166.89</ele>
        <time>2022-08-24T11:59:15Z</time>
      </trkpt>
      <trkpt lat="48.54188" lon="4.80476">
        <ele>165.86</ele>
        <time>2022-08-24T11:59:30Z</time>
      </trkpt>
      <trkpt lat="48.54191" lon="4.80471">
        <ele>165.69</ele>
        <time>2022-08-24T11:59:31Z</time>
      </trkpt>
      <trkpt lat="48.54202" lon="4.80456">
        <ele>165.51</ele>
        <time>2022-08-24T11:59:34Z</time>
      </trkpt>
      <trkpt lat="48.54208" lon="4.80443">
        <ele>165.21</ele>
        <time>2022-08-24T11:59:36Z</time>
      </trkpt>
      <trkpt lat="48.54252" lon="4.80353">
        <ele>161.78</ele>
        <time>2022-08-24T11:59:49Z</time>
      </trkpt>
      <trkpt lat="48.54285" lon="4.80291">
        <ele>159.8</ele>
        <time>2022-08-24T11:59:59Z</time>
      </trkpt>
      <trkpt lat="48.54328" lon="4.80207">
        <ele>158.28</ele>
        <time>2022-08-24T12:00:16Z</time>
      </trkpt>
      <trkpt lat="48.54377" lon="4.80117">
        <ele>159.09</ele>
        <time>2022-08-24T12:00:35Z</time>
      </trkpt>
      <trkpt lat="48.5442" lon="4.80064">
        <ele>160.58</ele>
        <time>2022-08-24T12:00:51Z</time>
      </trkpt>
      <trkpt lat="48.54484" lon="4.80014">
        <ele>159.76</ele>
        <time>2022-08-24T12:01:10Z</time>
      </trkpt>
      <trkpt lat="48.54558" lon="4.79983">
        <ele>159.8</ele>
        <time>2022-08-24T12:01:29Z</time>
      </trkpt>
      <trkpt lat="48.54628" lon="4.79973">
        <ele>160.77</ele>
        <time>2022-08-24T12:01:48Z</time>
      </trkpt>
      <trkpt lat="48.54701" lon="4.79963">
        <ele>161.1</ele>
        <time>2022-08-24T12:02:06Z</time>
      </trkpt>
      <trkpt lat="48.54781" lon="4.79942">
        <ele>158.99</ele>
        <time>2022-08-24T12:02:24Z</time>
      </trkpt>
      <trkpt lat="48.54835" lon="4.79902">
        <ele>157.56</ele>
        <time>2022-08-24T12:02:38Z</time>
      </trkpt>
      <trkpt lat="48.54859" lon="4.79875">
        <ele>156.84</ele>
        <time>2022-08-24T12:02:44Z</time>
      </trkpt>
      <trkpt lat="48.54915" lon="4.79782">
        <ele>155.95</ele>
        <time>2022-08-24T12:03:00Z</time>
      </trkpt>
      <trkpt lat="48.54949" lon="4.79723">
        <ele>156.51</ele>
        <time>2022-08-24T12:03:14Z</time>
      </trkpt>
      <trkpt lat="48.54974" lon="4.79673">
        <ele>157.2</ele>
        <time>2022-08-24T12:03:30Z</time>
      </trkpt>
      <trkpt lat="48.54973" lon="4.79672">
        <ele>157.23</ele>
        <time>2022-08-24T12:03:31Z</time>
      </trkpt>
      <trkpt lat="48.54962" lon="4.79691">
        <ele>156.48</ele>
        <time>2022-08-24T12:03:39Z</time>
      </trkpt>
      <trkpt lat="48.54959" lon="4.79697">
        <ele>156.21</ele>
        <time>2022-08-24T12:03:41Z</time>
      </trkpt>
      <trkpt lat="48.54958" lon="4.79701">
        <ele>156.78</ele>
        <time>2022-08-24T12:03:43Z</time>
      </trkpt>
      <trkpt lat="48.54983" lon="4.79661">
        <ele>157.44</ele>
        <time>2022-08-24T12:03:57Z</time>
      </trkpt>
      <trkpt lat="48.55016" lon="4.79606">
        <ele>158.18</ele>
        <time>2022-08-24T12:04:15Z</time>
      </trkpt>
      <trkpt lat="48.55051" lon="4.79545">
        <ele>158.34</ele>
        <time>2022-08-24T12:04:33Z</time>
      </trkpt>
      <trkpt lat="48.55087" lon="4.79498">
        <ele>158.65</ele>
        <time>2022-08-24T12:04:49Z</time>
      </trkpt>
      <trkpt lat="48.55116" lon="4.79465">
        <ele>159.08</ele>
        <time>2022-08-24T12:05:05Z</time>
      </trkpt>
      <trkpt lat="48.55142" lon="4.79437">
        <ele>159.15</ele>
        <time>2022-08-24T12:05:21Z</time>
      </trkpt>
      <trkpt lat="48.55177" lon="4.79402">
        <ele>159.26</ele>
        <time>2022-08-24T12:05:37Z</time>
      </trkpt>
      <trkpt lat="48.55213" lon="4.79365">
        <ele>158.66</ele>
        <time>2022-08-24T12:05:53Z</time>
      </trkpt>
      <trkpt lat="48.5525" lon="4.79328">
        <ele>158.05</ele>
        <time>2022-08-24T12:06:09Z</time>
      </trkpt>
      <trkpt lat="48.5528" lon="4.79298">
        <ele>157.89</ele>
        <time>2022-08-24T12:06:25Z</time>
      </trkpt>
      <trkpt lat="48.5532" lon="4.79272">
        <ele>157.85</ele>
        <time>2022-08-24T12:06:40Z</time>
      </trkpt>
      <trkpt lat="48.55366" lon="4.79258">
        <ele>157.76</ele>
        <time>2022-08-24T12:06:55Z</time>
      </trkpt>
      <trkpt lat="48.55415" lon="4.79254">
        <ele>157.78</ele>
        <time>2022-08-24T12:07:12Z</time>
      </trkpt>
      <trkpt lat="48.55452" lon="4.79251">
        <ele>157.64</ele>
        <time>2022-08-24T12:07:26Z</time>
      </trkpt>
      <trkpt lat="48.55495" lon="4.79246">
        <ele>157.68</ele>
        <time>2022-08-24T12:07:42Z</time>
      </trkpt>
      <trkpt lat="48.55538" lon="4.79233">
        <ele>157.64</ele>
        <time>2022-08-24T12:07:58Z</time>
      </trkpt>
      <trkpt lat="48.55573" lon="4.79209">
        <ele>157.69</ele>
        <time>2022-08-24T12:08:12Z</time>
      </trkpt>
      <trkpt lat="48.55599" lon="4.79184">
        <ele>157.8</ele>
        <time>2022-08-24T12:08:25Z</time>
      </trkpt>
      <trkpt lat="48.55629" lon="4.79146">
        <ele>158.17</ele>
        <time>2022-08-24T12:08:41Z</time>
      </trkpt>
      <trkpt lat="48.55654" lon="4.79117">
        <ele>158.59</ele>
        <time>2022-08-24T12:08:55Z</time>
      </trkpt>
      <trkpt lat="48.5568" lon="4.79087">
        <ele>158.99</ele>
        <time>2022-08-24T12:09:10Z</time>
      </trkpt>
      <trkpt lat="48.55702" lon="4.79056">
        <ele>159.2</ele>
        <time>2022-08-24T12:09:26Z</time>
      </trkpt>
      <trkpt lat="48.55706" lon="4.79045">
        <ele>159.09</ele>
        <time>2022-08-24T12:09:30Z</time>
      </trkpt>
      <trkpt lat="48.55704" lon="4.7904">
        <ele>159.48</ele>
        <time>2022-08-24T12:09:37Z</time>
      </trkpt>
      <trkpt lat="48.55691" lon="4.79016">
        <ele>159.83</ele>
        <time>2022-08-24T12:10:06Z</time>
      </trkpt>
      <trkpt lat="48.55681" lon="4.79001">
        <ele>160.21</ele>
        <time>2022-08-24T12:10:22Z</time>
      </trkpt>
      <trkpt lat="48.55672" lon="4.78995">
        <ele>160.09</ele>
        <time>2022-08-24T12:10:50Z</time>
      </trkpt>
      <trkpt lat="48.55646" lon="4.78968">
        <ele>160.07</ele>
        <time>2022-08-24T12:11:18Z</time>
      </trkpt>
      <trkpt lat="48.55645" lon="4.78966">
        <ele>160.06</ele>
        <time>2022-08-24T12:11:20Z</time>
      </trkpt>
      <trkpt lat="48.55638" lon="4.78957">
        <ele>160.04</ele>
        <time>2022-08-24T12:11:28Z</time>
      </trkpt>
      <trkpt lat="48.55634" lon="4.78954">
        <ele>159.88</ele>
        <time>2022-08-24T12:11:32Z</time>
      </trkpt>
      <trkpt lat="48.55628" lon="4.78949">
        <ele>159.96</ele>
        <time>2022-08-24T12:11:43Z</time>
      </trkpt>
      <trkpt lat="48.55607" lon="4.78919">
        <ele>159.65</ele>
        <time>2022-08-24T12:14:07Z</time>
      </trkpt>
      <trkpt lat="48.55603" lon="4.78914">
        <ele>159.34</ele>
        <time>2022-08-24T12:14:09Z</time>
      </trkpt>
      <trkpt lat="48.55577" lon="4.78881">
        <ele>157.74</ele>
        <time>2022-08-24T12:14:18Z</time>
      </trkpt>
      <trkpt lat="48.55544" lon="4.78837">
        <ele>155.3</ele>
        <time>2022-08-24T12:14:27Z</time>
      </trkpt>
      <trkpt lat="48.55531" lon="4.78784">
        <ele>156.49</ele>
        <time>2022-08-24T12:14:40Z</time>
      </trkpt>
      <trkpt lat="48.5551" lon="4.78688">
        <ele>156.33</ele>
        <time>2022-08-24T12:15:03Z</time>
      </trkpt>
      <trkpt lat="48.5549" lon="4.78599">
        <ele>156.25</ele>
        <time>2022-08-24T12:15:27Z</time>
      </trkpt>
      <trkpt lat="48.55469" lon="4.78506">
        <ele>156.2</ele>
        <time>2022-08-24T12:15:51Z</time>
      </trkpt>
      <trkpt lat="48.55452" lon="4.78428">
        <ele>156.2</ele>
        <time>2022-08-24T12:16:12Z</time>
      </trkpt>
      <trkpt lat="48.55432" lon="4.78339">
        <ele>156.32</ele>
        <time>2022-08-24T12:16:35Z</time>
      </trkpt>
      <trkpt lat="48.55417" lon="4.78273">
        <ele>155.98</ele>
        <time>2022-08-24T12:16:54Z</time>
      </trkpt>
      <trkpt lat="48.55402" lon="4.78205">
        <ele>156.37</ele>
        <time>2022-08-24T12:17:12Z</time>
      </trkpt>
      <trkpt lat="48.5539" lon="4.78145">
        <ele>156.3</ele>
        <time>2022-08-24T12:17:29Z</time>
      </trkpt>
      <trkpt lat="48.55376" lon="4.78086">
        <ele>155.81</ele>
        <time>2022-08-24T12:17:45Z</time>
      </trkpt>
      <trkpt lat="48.55372" lon="4.78079">
        <ele>156.54</ele>
        <time>2022-08-24T12:17:54Z</time>
      </trkpt>
      <trkpt lat="48.55369" lon="4.78072">
        <ele>156.21</ele>
        <time>2022-08-24T12:18:16Z</time>
      </trkpt>
      <trkpt lat="48.55355" lon="4.7803">
        <ele>156.3</ele>
        <time>2022-08-24T12:18:31Z</time>
      </trkpt>
      <trkpt lat="48.55348" lon="4.77996">
        <ele>156.31</ele>
        <time>2022-08-24T12:18:43Z</time>
      </trkpt>
      <trkpt lat="48.55325" lon="4.77932">
        <ele>156.33</ele>
        <time>2022-08-24T12:19:02Z</time>
      </trkpt>
      <trkpt lat="48.55318" lon="4.77876">
        <ele>156.96</ele>
        <time>2022-08-24T12:19:17Z</time>
      </trkpt>
      <trkpt lat="48.55341" lon="4.77824">
        <ele>156.96</ele>
        <time>2022-08-24T12:19:32Z</time>
      </trkpt>
      <trkpt lat="48.55359" lon="4.77773">
        <ele>157.81</ele>
        <time>2022-08-24T12:19:47Z</time>
      </trkpt>
      <trkpt lat="48.55366" lon="4.7772">
        <ele>157.35</ele>
        <time>2022-08-24T12:20:00Z</time>
      </trkpt>
      <trkpt lat="48.55372" lon="4.77643">
        <ele>157.22</ele>
        <time>2022-08-24T12:20:18Z</time>
      </trkpt>
      <trkpt lat="48.55344" lon="4.77593">
        <ele>157.46</ele>
        <time>2022-08-24T12:20:33Z</time>
      </trkpt>
      <trkpt lat="48.55331" lon="4.77544">
        <ele>157.18</ele>
        <time>2022-08-24T12:20:46Z</time>
      </trkpt>
      <trkpt lat="48.55306" lon="4.77488">
        <ele>156.9</ele>
        <time>2022-08-24T12:21:00Z</time>
      </trkpt>
      <trkpt lat="48.55279" lon="4.77428">
        <ele>156.41</ele>
        <time>2022-08-24T12:21:18Z</time>
      </trkpt>
      <trkpt lat="48.55257" lon="4.77376">
        <ele>156.51</ele>
        <time>2022-08-24T12:21:35Z</time>
      </trkpt>
      <trkpt lat="48.55226" lon="4.77334">
        <ele>156.84</ele>
        <time>2022-08-24T12:21:51Z</time>
      </trkpt>
      <trkpt lat="48.55215" lon="4.77283">
        <ele>157.41</ele>
        <time>2022-08-24T12:22:06Z</time>
      </trkpt>
      <trkpt lat="48.55221" lon="4.77239">
        <ele>157.78</ele>
        <time>2022-08-24T12:22:19Z</time>
      </trkpt>
      <trkpt lat="48.55217" lon="4.77192">
        <ele>157.94</ele>
        <time>2022-08-24T12:22:31Z</time>
      </trkpt>
      <trkpt lat="48.55231" lon="4.77138">
        <ele>157.79</ele>
        <time>2022-08-24T12:22:45Z</time>
      </trkpt>
      <trkpt lat="48.55246" lon="4.77098">
        <ele>158.16</ele>
        <time>2022-08-24T12:22:57Z</time>
      </trkpt>
      <trkpt lat="48.5528" lon="4.77083">
        <ele>157.56</ele>
        <time>2022-08-24T12:23:11Z</time>
      </trkpt>
      <trkpt lat="48.55297" lon="4.77041">
        <ele>157.34</ele>
        <time>2022-08-24T12:23:24Z</time>
      </trkpt>
      <trkpt lat="48.55299" lon="4.77015">
        <ele>157.68</ele>
        <time>2022-08-24T12:23:32Z</time>
      </trkpt>
      <trkpt lat="48.55293" lon="4.77008">
        <ele>157.56</ele>
        <time>2022-08-24T12:23:36Z</time>
      </trkpt>
      <trkpt lat="48.55261" lon="4.76975">
        <ele>157.36</ele>
        <time>2022-08-24T12:23:52Z</time>
      </trkpt>
      <trkpt lat="48.5526" lon="4.76975">
        <ele>142</ele>
        <time>2022-08-24T12:23:59Z</time>
      </trkpt>
    </trkseg>
  </trk>
</gpx>